Pythagoras — C6ZO4 — position and weather

sailwx.info

Track history (hours):
 
Tides and Currents Weather Stations Pressure Air Temp Water Temp Dewpoint Dewpoint Depression Visibility Wind Speed Wind Dir Waves Ship Positions

Pythagoras

Last reported at 2015-Aug-03 02:32 UTC. Time now 2015-Aug-03 02:41 UTC.
Position N 46°30' E 030°44'.

Length 190 m; draft 6.6 m.

Type: Ship. MMSI: 311061300.

Date/timePositionNaut miles runAvg speedWind from/ knotsBaromVisibWave heightAir tempDewpointWater temp
2015-Aug-03 02:32N 46°30' E 030°44'0 0.0
2015-Aug-03 01:32N 46°30' E 030°44'9 0.2
2015-Aug-01 02:33N 46°24' E 030°53'7010.9
2015-Jul-31 20:10N 45°15' E 030°47'  
2015-Jul-28 18:33N 38°40' E 025°05'1914.3
2015-Jul-28 17:15N 38°24' E 024°53'1014.4
2015-Jul-28 16:33N 38°15' E 024°48'4814.0
2015-Jul-28 13:06N 37°37' E 024°10'814.6
2015-Jul-28 12:33N 37°30' E 024°05'1414.4
2015-Jul-28 11:33N 37°17' E 023°55'1413.9
2015-Jul-28 10:33N 37°05' E 023°46'1414.4
2015-Jul-28 09:33N 36°53' E 023°37'1514.7
2015-Jul-28 08:33N 36°40' E 023°28'1414.3
2015-Jul-28 07:33N 36°28' E 023°19'1212.6
2015-Jul-28 06:33N 36°24' E 023°04'33314.4
2015-Jul-27 07:30N 36°25' E 016°11'4314.5
2015-Jul-27 04:33N 36°25' E 015°18'1414.4
2015-Jul-27 03:33N 36°27' E 015°00'1514.8
2015-Jul-27 02:33N 36°27' E 014°42'1514.9
2015-Jul-27 01:33N 36°30' E 014°24'1414.5
2015-Jul-27 00:33N 36°33' E 014°06'1514.9
2015-Jul-26 23:34N 36°37' E 013°48'1515.0
2015-Jul-26 22:33N 36°41' E 013°30'1515.1
2015-Jul-26 21:33N 36°45' E 013°12'1515.0
2015-Jul-26 20:33N 36°50' E 012°54'1515.1
2015-Jul-26 19:33N 36°54' E 012°36'1515.0
2015-Jul-26 18:33N 36°58' E 012°18'1514.9
2015-Jul-26 17:33N 37°02' E 012°00'1814.7
2015-Jul-26 16:19N 37°10' E 011°40'1214.4
2015-Jul-26 15:30N 37°16' E 011°27'1414.8
2015-Jul-26 14:33N 37°22' E 011°11'1515.2
2015-Jul-26 13:33N 37°26' E 010°52'1715.6
2015-Jul-26 12:26N 37°30' E 010°31'1415.6
2015-Jul-26 11:33N 37°33' E 010°14'  
Track history (hours):
 
Tides and Currents Weather Stations Pressure Air Temp Water Temp Dewpoint Dewpoint Depression Visibility Wind Speed Wind Dir Waves Ship Positions

Pythagoras

Last reported at 2015-Aug-03 02:32 UTC. Time now 2015-Aug-03 02:41 UTC.
Position N 46°30' E 030°44'.

Length 190 m; draft 6.6 m.

Type: Ship. MMSI: 311061300.

Date/timePositionNaut miles runAvg speedWind from/ knotsBaromVisibWave heightAir tempDewpointWater temp
2015-Aug-03 02:32N 46°30' E 030°44'0 0.0
2015-Aug-03 01:32N 46°30' E 030°44'9 0.2
2015-Aug-01 02:33N 46°24' E 030°53'7010.9
2015-Jul-31 20:10N 45°15' E 030°47'  
2015-Jul-28 18:33N 38°40' E 025°05'1914.3
2015-Jul-28 17:15N 38°24' E 024°53'1014.4
2015-Jul-28 16:33N 38°15' E 024°48'4814.0
2015-Jul-28 13:06N 37°37' E 024°10'814.6
2015-Jul-28 12:33N 37°30' E 024°05'1414.4
2015-Jul-28 11:33N 37°17' E 023°55'1413.9
2015-Jul-28 10:33N 37°05' E 023°46'1414.4
2015-Jul-28 09:33N 36°53' E 023°37'1514.7
2015-Jul-28 08:33N 36°40' E 023°28'1414.3
2015-Jul-28 07:33N 36°28' E 023°19'1212.6
2015-Jul-28 06:33N 36°24' E 023°04'33314.4
2015-Jul-27 07:30N 36°25' E 016°11'4314.5
2015-Jul-27 04:33N 36°25' E 015°18'1414.4
2015-Jul-27 03:33N 36°27' E 015°00'1514.8
2015-Jul-27 02:33N 36°27' E 014°42'1514.9
2015-Jul-27 01:33N 36°30' E 014°24'1414.5
2015-Jul-27 00:33N 36°33' E 014°06'1514.9
2015-Jul-26 23:34N 36°37' E 013°48'1515.0
2015-Jul-26 22:33N 36°41' E 013°30'1515.1
2015-Jul-26 21:33N 36°45' E 013°12'1515.0
2015-Jul-26 20:33N 36°50' E 012°54'1515.1
2015-Jul-26 19:33N 36°54' E 012°36'1515.0
2015-Jul-26 18:33N 36°58' E 012°18'1514.9
2015-Jul-26 17:33N 37°02' E 012°00'1814.7
2015-Jul-26 16:19N 37°10' E 011°40'1214.4
2015-Jul-26 15:30N 37°16' E 011°27'1414.8
2015-Jul-26 14:33N 37°22' E 011°11'1515.2
2015-Jul-26 13:33N 37°26' E 010°52'1715.6
2015-Jul-26 12:26N 37°30' E 010°31'1415.6
2015-Jul-26 11:33N 37°33' E 010°14'  

Dump ship's entire track history